Weather at Prekopa Airstrip

Public forecast

Using degrees Celsius for public forecast. Weather courtesy of forecast.io.

Closest aviation weather report (METAR) to Prekopa Airstrip

Closest report is Ljubljana Jože Pučnik Airport, 22.5 nm (41.6 km) W.

2024/05/22 18:30 (retrieved 15 minutes ago)

LJLJ 221830Z 29009KT 9999 -SHRA FEW013 FEW035TCU BKN075 14/12 Q1014 NOSIG

Closest aviation forecast (TAF) to Prekopa Airstrip

Closest forecast is Ljubljana Jože Pučnik Airport, 22.5 nm (41.6 km) W.

2024/05/22 18:06 (retrieved 39 minutes ago)

TAF LJLJ 221700Z 2218/2318 VRB02KT 9999 FEW040 PROB30 TEMPO 2218/2221 SHRA FEW035TCU PROB30 TEMPO 2302/2306 0500 FG VV002 TEMPO 2309/2318 SHRA FEW035TCU SCT050 PROB30 TEMPO 2310/2318 5000 TSRA FEW035CB BKN050